Time,TemperatureF,DewpointF,PressureIn,WindDirection,WindDirectionDegrees,WindSpeedMPH,WindSpeedGustMPH,Humidity,HourlyPrecipIn,Conditions,Clouds,dailyrainin,SoftwareType,DateUTC
2013-07-21 00:00:00,68.3,67.1,29.87,NNW,347,0.0,0.0,96,0.00,,---,0.00,VWS V14.01,2013-07-21 04:00:00,
2013-07-21 00:01:00,68.3,67.1,29.87,NNW,347,0.0,0.0,96,0.00,,---,0.00,VWS V14.01,2013-07-21 04:01:00,
2013-07-21 00:06:00,68.1,66.6,29.87,NNW,347,0.0,0.0,95,0.00,,---,0.00,VWS V14.01,2013-07-21 04:06:00,
2013-07-21 00:11:00,67.8,66.3,29.87,NNW,347,0.0,0.0,95,0.00,,---,0.00,VWS V14.01,2013-07-21 04:11:00,
2013-07-21 00:16:00,67.7,66.2,29.87,NNW,347,0.0,0.0,95,0.00,,---,0.00,VWS V14.01,2013-07-21 04:16:00,
2013-07-21 00:21:00,67.6,66.4,29.87,NNW,347,0.0,0.0,96,0.00,,---,0.00,VWS V14.01,2013-07-21 04:21:00,
2013-07-21 00:26:00,67.5,66.3,29.87,NNW,347,0.0,0.0,96,0.00,,---,0.00,VWS V14.01,2013-07-21 04:26:00,
2013-07-21 00:30:00,67.3,66.1,29.88,NNW,347,0.0,0.0,96,0.00,,---,0.00,VWS V14.01,2013-07-21 04:30:00,
2013-07-21 00:31:00,67.2,66.0,29.88,NNW,347,0.0,0.0,96,0.00,,---,0.00,VWS V14.01,2013-07-21 04:31:00,
2013-07-21 00:36:00,66.9,65.4,29.88,NNW,347,0.0,0.0,95,0.00,,---,0.00,VWS V14.01,2013-07-21 04:36:00,
2013-07-21 00:41:00,66.9,65.7,29.88,NNW,347,0.0,0.0,96,0.00,,---,0.00,VWS V14.01,2013-07-21 04:41:00,
2013-07-21 00:42:00,66.9,65.7,29.88,NNW,347,0.0,0.0,96,0.00,,---,0.00,VWS V14.01,2013-07-21 04:42:00,
2013-07-21 00:47:00,66.9,65.7,29.88,NNW,347,0.0,0.0,96,0.00,,---,0.00,VWS V14.01,2013-07-21 04:47:00,
2013-07-21 00:52:00,66.7,65.5,29.88,NNW,347,0.0,0.0,96,0.00,,---,0.00,VWS V14.01,2013-07-21 04:52:00,
2013-07-21 00:57:00,66.8,65.6,29.88,NNW,347,0.0,0.0,96,0.00,,---,0.00,VWS V14.01,2013-07-21 04:57:00,
2013-07-21 01:00:00,66.7,65.5,29.88,NNW,347,0.0,0.0,96,0.00,,---,0.00,VWS V14.01,2013-07-21 05:00:00,
2013-07-21 01:02:00,66.7,65.5,29.88,NNW,347,0.0,0.0,96,0.00,,---,0.00,VWS V14.01,2013-07-21 05:02:00,
2013-07-21 01:07:00,66.6,65.4,29.88,NNW,347,0.0,0.0,96,0.00,,---,0.00,VWS V14.01,2013-07-21 05:07:00,
2013-07-21 01:12:00,66.5,65.3,29.88,NNW,347,0.0,0.0,96,0.00,,---,0.00,VWS V14.01,2013-07-21 05:12:00,
2013-07-21 01:17:00,66.3,65.1,29.88,NNW,347,0.0,0.0,96,0.00,,---,0.00,VWS V14.01,2013-07-21 05:17:00,
2013-07-21 01:22:00,66.0,64.5,29.88,NNW,347,0.0,0.0,95,0.00,,---,0.00,VWS V14.01,2013-07-21 05:22:00,
2013-07-21 01:27:00,66.0,64.8,29.88,NNW,347,0.0,0.0,96,0.00,,---,0.00,VWS V14.01,2013-07-21 05:27:00,
2013-07-21 01:30:00,66.2,65.0,29.88,NNW,347,0.0,0.0,96,0.00,,---,0.00,VWS V14.01,2013-07-21 05:30:00,
2013-07-21 01:32:00,66.3,65.1,29.88,NNW,347,0.0,0.0,96,0.00,,---,0.00,VWS V14.01,2013-07-21 05:32:00,
2013-07-21 01:37:00,66.5,65.3,29.88,NNW,347,0.0,0.0,96,0.00,,---,0.00,VWS V14.01,2013-07-21 05:37:00,
2013-07-21 01:42:00,66.7,65.5,29.88,NNW,347,0.0,0.0,96,0.00,,---,0.00,VWS V14.01,2013-07-21 05:42:00,
2013-07-21 01:47:00,66.9,65.7,29.88,NNW,347,0.0,0.0,96,0.00,,---,0.00,VWS V14.01,2013-07-21 05:47:00,
2013-07-21 01:52:00,67.0,65.8,29.88,NNW,347,0.0,0.0,96,0.00,,---,0.00,VWS V14.01,2013-07-21 05:52:00,
2013-07-21 01:57:00,66.9,65.7,29.88,NNW,347,0.0,0.0,96,0.00,,---,0.00,VWS V14.01,2013-07-21 05:57:00,
2013-07-21 02:00:00,66.8,65.6,29.88,NNW,347,0.0,0.0,96,0.00,,---,0.00,VWS V14.01,2013-07-21 06:00:00,
2013-07-21 02:02:00,66.8,65.6,29.88,NNW,347,0.0,0.0,96,0.00,,---,0.00,VWS V14.01,2013-07-21 06:02:00,
2013-07-21 02:07:00,66.8,65.6,29.88,NNW,347,0.0,0.0,96,0.00,,---,0.00,VWS V14.01,2013-07-21 06:07:00,
2013-07-21 02:12:00,67.1,65.9,29.88,NNW,347,0.0,0.0,96,0.00,,---,0.00,VWS V14.01,2013-07-21 06:12:00,
2013-07-21 02:17:00,67.1,65.6,29.88,NNW,347,0.0,0.0,95,0.00,,---,0.00,VWS V14.01,2013-07-21 06:17:00,
2013-07-21 02:22:00,66.9,65.4,29.88,NNW,347,0.0,0.0,95,0.00,,---,0.00,VWS V14.01,2013-07-21 06:22:00,
2013-07-21 02:27:00,66.8,65.3,29.88,NNW,347,0.0,0.0,95,0.00,,---,0.00,VWS V14.01,2013-07-21 06:27:00,
2013-07-21 02:30:00,66.7,65.2,29.88,NNW,347,0.0,0.0,95,0.00,,---,0.00,VWS V14.01,2013-07-21 06:30:00,
2013-07-21 02:32:00,66.6,65.1,29.88,NNW,347,0.0,0.0,95,0.00,,---,0.00,VWS V14.01,2013-07-21 06:32:00,
2013-07-21 02:37:00,66.4,64.9,29.88,NNW,347,0.0,0.0,95,0.00,,---,0.00,VWS V14.01,2013-07-21 06:37:00,
2013-07-21 02:42:00,66.4,64.9,29.88,NNW,347,0.0,0.0,95,0.00,,---,0.00,VWS V14.01,2013-07-21 06:42:00,
2013-07-21 02:47:00,66.5,65.3,29.88,NNW,347,0.0,0.0,96,0.00,,---,0.00,VWS V14.01,2013-07-21 06:47:00,
2013-07-21 02:52:00,66.4,64.9,29.88,NNW,347,0.0,0.0,95,0.00,,---,0.00,VWS V14.01,2013-07-21 06:52:00,
2013-07-21 02:57:00,66.3,64.8,29.88,NNW,347,0.0,0.0,95,0.00,,---,0.00,VWS V14.01,2013-07-21 06:57:00,
2013-07-21 03:00:00,66.1,64.6,29.88,NNW,347,0.0,0.0,95,0.00,,---,0.00,VWS V14.01,2013-07-21 07:00:00,
2013-07-21 03:02:00,66.0,64.5,29.88,NNW,347,0.0,0.0,95,0.00,,---,0.00,VWS V14.01,2013-07-21 07:02:00,
2013-07-21 03:07:00,65.8,64.3,29.88,NNW,347,0.0,0.0,95,0.00,,---,0.00,VWS V14.01,2013-07-21 07:07:00,
2013-07-21 03:12:00,65.9,64.7,29.88,NNW,347,0.0,0.0,96,0.00,,---,0.00,VWS V14.01,2013-07-21 07:12:00,
2013-07-21 03:17:00,65.9,64.7,29.88,NNW,347,0.0,0.0,96,0.00,,---,0.00,VWS V14.01,2013-07-21 07:17:00,
2013-07-21 03:22:00,65.7,64.5,29.88,NNW,347,0.0,0.0,96,0.00,,---,0.00,VWS V14.01,2013-07-21 07:22:00,
2013-07-21 03:27:00,65.6,64.4,29.88,NNW,347,0.0,0.0,96,0.00,,---,0.00,VWS V14.01,2013-07-21 07:27:00,
2013-07-21 03:30:00,65.5,64.3,29.87,NNW,347,0.0,0.0,96,0.00,,---,0.00,VWS V14.01,2013-07-21 07:30:00,
2013-07-21 03:33:00,65.5,64.3,29.87,NNW,347,0.0,0.0,96,0.00,,---,0.00,VWS V14.01,2013-07-21 07:33:00,
2013-07-21 03:38:00,65.4,64.2,29.88,NNW,347,0.0,0.0,96,0.00,,---,0.00,VWS V14.01,2013-07-21 07:38:00,
2013-07-21 03:43:00,65.3,64.1,29.88,NNW,347,0.0,0.0,96,0.00,,---,0.00,VWS V14.01,2013-07-21 07:43:00,
2013-07-21 03:48:00,65.2,64.0,29.89,NNW,347,0.0,0.0,96,0.00,,---,0.00,VWS V14.01,2013-07-21 07:48:00,
2013-07-21 03:53:00,65.1,63.9,29.89,NNW,347,0.0,0.0,96,0.00,,---,0.00,VWS V14.01,2013-07-21 07:53:00,
2013-07-21 03:58:00,65.4,64.5,29.89,NNW,347,0.0,0.0,97,0.00,,---,0.00,VWS V14.01,2013-07-21 07:58:00,
2013-07-21 04:00:00,65.6,64.7,29.89,NNW,347,0.0,0.0,97,0.00,,---,0.00,VWS V14.01,2013-07-21 08:00:00,
2013-07-21 04:03:00,65.7,64.8,29.89,NNW,347,0.0,0.0,97,0.00,,---,0.00,VWS V14.01,2013-07-21 08:03:00,
2013-07-21 04:08:00,65.8,64.9,29.88,NNW,347,0.0,0.0,97,0.00,,---,0.00,VWS V14.01,2013-07-21 08:08:00,
2013-07-21 04:13:00,66.1,65.2,29.88,NNW,347,0.0,0.0,97,0.00,,---,0.00,VWS V14.01,2013-07-21 08:13:00,
2013-07-21 04:18:00,66.0,65.1,29.88,NNW,347,0.0,0.0,97,0.00,,---,0.00,VWS V14.01,2013-07-21 08:18:00,
2013-07-21 04:23:00,65.9,65.0,29.88,NNW,347,0.0,0.0,97,0.00,,---,0.00,VWS V14.01,2013-07-21 08:23:00,
2013-07-21 04:28:00,65.8,64.6,29.89,NNW,347,0.0,0.0,96,0.00,,---,0.00,VWS V14.01,2013-07-21 08:28:00,
2013-07-21 04:30:00,65.8,64.9,29.89,NNW,347,0.0,0.0,97,0.00,,---,0.00,VWS V14.01,2013-07-21 08:30:00,
2013-07-21 04:33:00,65.8,64.9,29.89,NNW,347,0.0,0.0,97,0.00,,---,0.00,VWS V14.01,2013-07-21 08:33:00,
2013-07-21 04:38:00,65.7,64.8,29.88,NNW,347,0.0,0.0,97,0.00,,---,0.00,VWS V14.01,2013-07-21 08:38:00,
2013-07-21 04:43:00,65.9,65.0,29.88,NNW,347,0.0,0.0,97,0.00,,---,0.00,VWS V14.01,2013-07-21 08:43:00,
2013-07-21 04:48:00,65.8,64.9,29.88,NNW,347,0.0,0.0,97,0.00,,---,0.00,VWS V14.01,2013-07-21 08:48:00,
2013-07-21 04:53:00,65.6,64.7,29.88,NNW,347,0.0,0.0,97,0.00,,---,0.00,VWS V14.01,2013-07-21 08:53:00,
2013-07-21 04:58:00,65.6,64.7,29.88,NNW,347,0.0,0.0,97,0.00,,---,0.00,VWS V14.01,2013-07-21 08:58:00,
2013-07-21 05:00:00,65.6,64.7,29.88,NNW,347,0.0,0.0,97,0.00,,---,0.00,VWS V14.01,2013-07-21 09:00:00,
2013-07-21 05:03:00,65.6,64.7,29.88,NNW,347,0.0,0.0,97,0.00,,---,0.00,VWS V14.01,2013-07-21 09:03:00,
2013-07-21 05:08:00,65.4,64.5,29.88,NNW,345,0.0,0.0,97,0.00,,---,0.00,VWS V14.01,2013-07-21 09:08:00,
2013-07-21 05:13:00,65.1,64.2,29.88,NNW,347,0.0,0.0,97,0.00,,---,0.00,VWS V14.01,2013-07-21 09:13:00,
2013-07-21 05:18:00,65.3,64.4,29.88,ESE,122,0.0,1.0,97,0.00,,---,0.00,VWS V14.01,2013-07-21 09:18:00,
2013-07-21 05:23:00,64.9,64.0,29.88,ESE,121,0.0,1.0,97,0.00,,---,0.00,VWS V14.01,2013-07-21 09:23:00,
2013-07-21 05:28:00,64.6,63.4,29.88,ESE,121,0.0,1.0,96,0.00,,---,0.00,VWS V14.01,2013-07-21 09:28:00,
2013-07-21 05:30:00,64.7,63.8,29.88,ESE,122,0.0,1.0,97,0.00,,---,0.00,VWS V14.01,2013-07-21 09:30:00,
2013-07-21 05:33:00,64.8,63.9,29.88,ESE,122,0.0,0.0,97,0.00,,---,0.00,VWS V14.01,2013-07-21 09:33:00,
2013-07-21 05:38:00,64.7,63.8,29.88,ESE,121,0.0,0.0,97,0.00,,---,0.00,VWS V14.01,2013-07-21 09:38:00,
2013-07-21 05:43:00,64.5,63.6,29.89,ESE,122,0.0,0.0,97,0.00,,---,0.00,VWS V14.01,2013-07-21 09:43:00,
2013-07-21 05:48:00,64.3,63.4,29.89,ESE,121,0.0,0.0,97,0.00,,---,0.00,VWS V14.01,2013-07-21 09:48:00,
2013-07-21 05:53:00,64.5,63.6,29.89,ESE,122,0.0,0.0,97,0.00,,---,0.00,VWS V14.01,2013-07-21 09:53:00,
2013-07-21 05:58:00,64.3,63.4,29.89,ESE,121,0.0,0.0,97,0.00,,---,0.00,VWS V14.01,2013-07-21 09:58:00,
2013-07-21 06:00:00,64.2,63.3,29.89,ESE,121,0.0,0.0,97,0.00,,---,0.00,VWS V14.01,2013-07-21 10:00:00,
2013-07-21 06:03:00,64.2,63.3,29.89,ESE,121,0.0,0.0,97,0.00,,---,0.00,VWS V14.01,2013-07-21 10:03:00,
2013-07-21 06:08:00,63.9,63.0,29.89,ESE,121,0.0,0.0,97,0.00,,---,0.00,VWS V14.01,2013-07-21 10:08:00,
2013-07-21 06:13:00,63.8,62.9,29.89,ESE,121,0.0,0.0,97,0.00,,---,0.00,VWS V14.01,2013-07-21 10:13:00,
2013-07-21 06:18:00,63.7,62.8,29.89,ESE,122,0.0,0.0,97,0.00,,---,0.00,VWS V14.01,2013-07-21 10:18:00,
2013-07-21 06:23:00,63.7,62.8,29.89,ESE,121,0.0,0.0,97,0.00,,---,0.00,VWS V14.01,2013-07-21 10:23:00,
2013-07-21 06:29:00,63.6,62.7,29.90,ESE,122,0.0,0.0,97,0.00,,---,0.00,VWS V14.01,2013-07-21 10:29:00,
2013-07-21 06:30:00,63.5,62.6,29.90,ESE,121,0.0,0.0,97,0.00,,---,0.00,VWS V14.01,2013-07-21 10:30:00,
2013-07-21 06:34:00,63.6,62.7,29.90,ESE,121,0.0,0.0,97,0.00,,---,0.00,VWS V14.01,2013-07-21 10:34:00,
2013-07-21 06:39:00,63.7,62.8,29.90,ESE,122,0.0,0.0,97,0.00,,---,0.00,VWS V14.01,2013-07-21 10:39:00,
2013-07-21 06:44:00,63.5,62.6,29.91,ESE,121,0.0,0.0,97,0.00,,---,0.00,VWS V14.01,2013-07-21 10:44:00,
2013-07-21 06:49:00,63.5,62.6,29.91,ESE,122,0.0,0.0,97,0.00,,---,0.00,VWS V14.01,2013-07-21 10:49:00,
2013-07-21 06:54:00,63.4,62.5,29.91,ESE,121,0.0,0.0,97,0.00,,---,0.00,VWS V14.01,2013-07-21 10:54:00,
2013-07-21 06:59:00,63.6,62.7,29.91,ESE,122,0.0,0.0,97,0.00,,---,0.00,VWS V14.01,2013-07-21 10:59:00,
2013-07-21 07:00:00,63.6,62.7,29.91,ESE,121,0.0,0.0,97,0.00,,---,0.00,VWS V14.01,2013-07-21 11:00:00,
2013-07-21 07:04:00,63.7,62.8,29.91,ESE,121,0.0,0.0,97,0.00,,---,0.00,VWS V14.01,2013-07-21 11:04:00,
2013-07-21 07:09:00,64.0,63.1,29.92,ESE,121,0.0,0.0,97,0.00,,---,0.00,VWS V14.01,2013-07-21 11:09:00,
2013-07-21 07:14:00,64.4,63.8,29.92,ESE,121,0.0,0.0,98,0.00,,---,0.00,VWS V14.01,2013-07-21 11:14:00,
2013-07-21 07:19:00,64.5,63.9,29.92,ESE,121,0.0,0.0,98,0.00,,---,0.00,VWS V14.01,2013-07-21 11:19:00,
2013-07-21 07:24:00,64.4,63.5,29.92,ESE,121,0.0,0.0,97,0.00,,---,0.00,VWS V14.01,2013-07-21 11:24:00,
2013-07-21 07:29:00,64.5,63.6,29.92,ESE,122,0.0,0.0,97,0.00,,---,0.00,VWS V14.01,2013-07-21 11:29:00,
2013-07-21 07:30:00,64.6,63.7,29.92,ESE,122,0.0,0.0,97,0.00,,---,0.00,VWS V14.01,2013-07-21 11:30:00,
2013-07-21 07:34:00,64.7,63.8,29.91,ESE,121,0.0,0.0,97,0.00,,---,0.00,VWS V14.01,2013-07-21 11:34:00,
2013-07-21 07:39:00,64.8,63.9,29.92,ESE,122,0.0,0.0,97,0.00,,---,0.00,VWS V14.01,2013-07-21 11:39:00,
2013-07-21 07:44:00,65.2,64.3,29.91,ESE,121,0.0,0.0,97,0.00,,---,0.00,VWS V14.01,2013-07-21 11:44:00,
2013-07-21 07:49:00,65.8,64.9,29.92,ESE,121,0.0,0.0,97,0.00,,---,0.00,VWS V14.01,2013-07-21 11:49:00,
2013-07-21 07:54:00,66.3,65.4,29.91,ESE,121,0.0,0.0,97,0.00,,---,0.00,VWS V14.01,2013-07-21 11:54:00,
2013-07-21 07:59:00,66.8,65.9,29.92,East,97,0.0,2.0,97,0.00,,---,0.00,VWS V14.01,2013-07-21 11:59:00,
2013-07-21 08:00:00,66.9,66.0,29.92,North,352,1.0,2.0,97,0.00,,---,0.00,VWS V14.01,2013-07-21 12:00:00,
2013-07-21 08:04:00,67.6,66.4,29.92,North,351,0.0,1.0,96,0.00,,---,0.00,VWS V14.01,2013-07-21 12:04:00,
2013-07-21 08:09:00,68.2,66.4,29.92,North,356,1.0,1.0,94,0.00,,---,0.00,VWS V14.01,2013-07-21 12:09:00,
2013-07-21 08:14:00,68.8,66.1,29.92,North,359,2.0,3.0,91,0.00,,---,0.00,VWS V14.01,2013-07-21 12:14:00,
2013-07-21 08:19:00,69.5,66.1,29.92,North,4,3.0,3.0,89,0.00,,---,0.00,VWS V14.01,2013-07-21 12:19:00,
2013-07-21 08:24:00,69.9,66.2,29.93,NNE,13,1.0,4.0,88,0.00,,---,0.00,VWS V14.01,2013-07-21 12:24:00,
2013-07-21 08:29:00,70.4,66.3,29.93,NNE,26,0.0,4.0,87,0.00,,---,0.00,VWS V14.01,2013-07-21 12:29:00,
2013-07-21 08:30:00,70.5,66.4,29.93,NNE,20,2.0,4.0,87,0.00,,---,0.00,VWS V14.01,2013-07-21 12:30:00,
2013-07-21 08:34:00,70.9,66.5,29.93,ENE,65,1.0,4.0,86,0.00,,---,0.00,VWS V14.01,2013-07-21 12:34:00,
2013-07-21 08:39:00,71.3,66.9,29.93,North,351,0.0,4.0,86,0.00,,---,0.00,VWS V14.01,2013-07-21 12:39:00,
2013-07-21 08:44:00,71.6,67.2,29.93,NNE,30,2.0,4.0,86,0.00,,---,0.00,VWS V14.01,2013-07-21 12:44:00,
2013-07-21 08:49:00,71.7,67.3,29.93,NE,55,2.0,5.0,86,0.00,,---,0.00,VWS V14.01,2013-07-21 12:49:00,
2013-07-21 08:54:00,71.9,67.2,29.93,ENE,60,1.0,5.0,85,0.00,,---,0.00,VWS V14.01,2013-07-21 12:54:00,
2013-07-21 08:59:00,72.5,67.7,29.93,NW,326,2.0,5.0,85,0.00,,---,0.00,VWS V14.01,2013-07-21 12:59:00,
2013-07-21 09:00:00,72.6,67.8,29.93,NE,56,1.0,5.0,85,0.00,,---,0.00,VWS V14.01,2013-07-21 13:00:00,
2013-07-21 09:04:00,72.9,67.8,29.93,NW,317,1.0,3.0,84,0.00,,---,0.00,VWS V14.01,2013-07-21 13:04:00,
2013-07-21 09:09:00,73.2,68.1,29.93,SSW,193,0.0,4.0,84,0.00,,---,0.00,VWS V14.01,2013-07-21 13:09:00,
2013-07-21 09:14:00,74.0,69.2,29.93,NNW,345,0.0,4.0,85,0.00,,---,0.00,VWS V14.01,2013-07-21 13:14:00,
2013-07-21 09:20:00,74.7,68.8,29.93,ESE,120,5.0,5.0,82,0.00,,---,0.00,VWS V14.01,2013-07-21 13:20:00,
2013-07-21 09:25:00,74.8,68.6,29.93,WNW,287,1.0,5.0,81,0.00,,---,0.00,VWS V14.01,2013-07-21 13:25:00,
2013-07-21 09:30:00,75.1,68.9,29.94,NNW,345,0.0,5.0,81,0.00,,---,0.00,VWS V14.01,2013-07-21 13:30:00,
2013-07-21 09:35:00,75.6,69.4,29.94,North,360,3.0,4.0,81,0.00,,---,0.00,VWS V14.01,2013-07-21 13:35:00,
2013-07-21 09:40:00,75.4,69.2,29.94,NE,44,0.0,5.0,81,0.00,,---,0.00,VWS V14.01,2013-07-21 13:40:00,
2013-07-21 09:44:00,75.7,69.8,29.94,SSE,159,2.0,5.0,82,0.00,,---,0.00,VWS V14.01,2013-07-21 13:44:00,
2013-07-21 09:50:00,76.3,70.1,29.94,SW,232,1.0,5.0,81,0.00,,---,0.00,VWS V14.01,2013-07-21 13:50:00,
2013-07-21 09:55:00,76.6,69.6,29.94,ENE,65,1.0,5.0,79,0.00,,---,0.00,VWS V14.01,2013-07-21 13:55:00,
2013-07-21 10:00:00,77.0,69.6,29.94,SSE,152,1.0,5.0,78,0.00,,---,0.00,VWS V14.01,2013-07-21 14:00:00,
2013-07-21 10:05:00,77.2,69.8,29.94,NE,49,3.0,3.0,78,0.00,,---,0.00,VWS V14.01,2013-07-21 14:05:00,
2013-07-21 10:10:00,77.2,69.8,29.94,ESE,120,1.0,4.0,78,0.00,,---,0.00,VWS V14.01,2013-07-21 14:10:00,
2013-07-21 10:15:00,77.8,69.6,29.94,West,281,1.0,4.0,76,0.00,,---,0.00,VWS V14.01,2013-07-21 14:15:00,
2013-07-21 10:20:00,78.1,70.3,29.94,NNW,335,2.0,5.0,77,0.00,,---,0.00,VWS V14.01,2013-07-21 14:20:00,
2013-07-21 10:25:00,78.2,70.0,29.94,West,277,1.0,5.0,76,0.00,,---,0.00,VWS V14.01,2013-07-21 14:25:00,
2013-07-21 10:30:00,78.6,70.8,29.94,WNW,290,1.0,5.0,77,0.00,,---,0.00,VWS V14.01,2013-07-21 14:30:00,
2013-07-21 10:35:00,78.8,69.8,29.94,North,356,1.0,3.0,74,0.00,,---,0.00,VWS V14.01,2013-07-21 14:35:00,
2013-07-21 10:40:00,78.7,69.7,29.94,SW,228,2.0,5.0,74,0.00,,---,0.00,VWS V14.01,2013-07-21 14:40:00,
2013-07-21 10:45:00,78.7,69.7,29.94,NNE,18,4.0,5.0,74,0.00,,---,0.00,VWS V14.01,2013-07-21 14:45:00,
2013-07-21 10:50:00,79.0,70.0,29.94,NNW,340,3.0,9.0,74,0.00,,---,0.00,VWS V14.01,2013-07-21 14:50:00,
2013-07-21 10:55:00,79.1,69.3,29.94,ESE,102,1.0,9.0,72,0.00,,---,0.00,VWS V14.01,2013-07-21 14:55:00,
2013-07-21 11:00:00,79.3,68.7,29.94,ENE,68,3.0,9.0,70,0.00,,---,0.00,VWS V14.01,2013-07-21 15:00:00,
2013-07-21 11:05:00,79.5,69.7,29.94,South,181,2.0,4.0,72,0.00,,---,0.00,VWS V14.01,2013-07-21 15:05:00,
2013-07-21 11:10:00,79.9,69.2,29.94,SSE,165,2.0,5.0,70,0.00,,---,0.00,VWS V14.01,2013-07-21 15:10:00,
2013-07-21 11:15:00,79.9,68.4,29.94,ENE,65,1.0,5.0,68,0.00,,---,0.00,VWS V14.01,2013-07-21 15:15:00,
2013-07-21 11:20:00,79.8,69.6,29.94,NNE,33,2.0,5.0,71,0.00,,---,0.00,VWS V14.01,2013-07-21 15:20:00,
2013-07-21 11:25:00,80.0,68.1,29.94,SSE,153,2.0,5.0,67,0.00,,---,0.00,VWS V14.01,2013-07-21 15:25:00,
2013-07-21 11:30:00,80.2,69.5,29.94,NNW,335,0.0,6.0,70,0.00,,---,0.00,VWS V14.01,2013-07-21 15:30:00,
2013-07-21 11:35:00,80.2,68.3,29.94,NNW,339,2.0,5.0,67,0.00,,---,0.00,VWS V14.01,2013-07-21 15:35:00,
2013-07-21 11:40:00,80.3,67.0,29.94,ENE,74,0.0,5.0,64,0.00,,---,0.00,VWS V14.01,2013-07-21 15:40:00,
2013-07-21 11:45:00,80.7,67.4,29.94,SSE,167,0.0,5.0,64,0.00,,---,0.00,VWS V14.01,2013-07-21 15:45:00,
2013-07-21 11:50:00,81.0,69.4,29.95,SSE,156,1.0,5.0,68,0.00,,---,0.00,VWS V14.01,2013-07-21 15:50:00,
2013-07-21 11:55:00,81.5,69.9,29.95,ESE,120,1.0,5.0,68,0.00,,---,0.00,VWS V14.01,2013-07-21 15:55:00,
2013-07-21 12:00:00,81.9,70.3,29.94,ESE,102,0.0,5.0,68,0.00,,---,0.00,VWS V14.01,2013-07-21 16:00:00,
2013-07-21 12:05:00,82.1,68.3,29.94,SE,146,4.0,5.0,63,0.00,,---,0.00,VWS V14.01,2013-07-21 16:05:00,
2013-07-21 12:10:00,82.2,68.8,29.94,ESE,108,2.0,5.0,64,0.00,,---,0.00,VWS V14.01,2013-07-21 16:10:00,
2013-07-21 12:15:00,82.4,69.5,29.94,East,101,1.0,5.0,65,0.00,,---,0.00,VWS V14.01,2013-07-21 16:15:00,
2013-07-21 12:20:00,82.5,70.0,29.94,NNE,22,3.0,5.0,66,0.00,,---,0.00,VWS V14.01,2013-07-21 16:20:00,
2013-07-21 12:25:00,82.3,68.9,29.94,SE,146,3.0,5.0,64,0.00,,---,0.00,VWS V14.01,2013-07-21 16:25:00,
2013-07-21 12:30:00,82.7,68.4,29.93,SE,134,2.0,5.0,62,0.00,,---,0.00,VWS V14.01,2013-07-21 16:30:00,
2013-07-21 12:31:00,82.7,68.4,29.93,SSW,205,2.0,2.0,62,0.00,,---,0.00,VWS V14.01,2013-07-21 16:31:00,
2013-07-21 12:36:00,83.0,70.0,29.93,SSE,158,3.0,5.0,65,0.00,,---,0.00,VWS V14.01,2013-07-21 16:36:00,
2013-07-21 12:41:00,83.2,70.2,29.93,SSE,148,2.0,5.0,65,0.00,,---,0.00,VWS V14.01,2013-07-21 16:41:00,
2013-07-21 12:46:00,83.1,68.3,29.93,ESE,117,2.0,5.0,61,0.00,,---,0.00,VWS V14.01,2013-07-21 16:46:00,
2013-07-21 12:51:00,83.1,67.8,29.93,South,169,2.0,5.0,60,0.00,,---,0.00,VWS V14.01,2013-07-21 16:51:00,
2013-07-21 12:56:00,83.0,66.7,29.93,SE,145,1.0,5.0,58,0.00,,---,0.00,VWS V14.01,2013-07-21 16:56:00,
2013-07-21 13:00:00,82.9,68.1,29.93,NNE,18,3.0,5.0,61,0.00,,---,0.00,VWS V14.01,2013-07-21 17:00:00,
2013-07-21 13:01:00,82.9,68.6,29.93,NNW,344,3.0,4.0,62,0.00,,---,0.00,VWS V14.01,2013-07-21 17:01:00,
2013-07-21 13:06:00,82.4,67.1,29.93,NW,314,1.0,5.0,60,0.00,,---,0.00,VWS V14.01,2013-07-21 17:06:00,
2013-07-21 13:11:00,83.0,66.7,29.93,ESE,109,1.0,5.0,58,0.00,,---,0.00,VWS V14.01,2013-07-21 17:11:00,
2013-07-21 13:16:00,83.2,66.4,29.93,NNW,347,3.0,5.0,57,0.00,,---,0.00,VWS V14.01,2013-07-21 17:16:00,
2013-07-21 13:21:00,83.1,67.3,29.93,SSE,149,3.0,5.0,59,0.00,,---,0.00,VWS V14.01,2013-07-21 17:21:00,
2013-07-21 13:26:00,83.8,66.4,29.92,SE,143,0.0,5.0,56,0.00,,---,0.00,VWS V14.01,2013-07-21 17:26:00,
2013-07-21 13:30:00,84.5,67.1,29.92,North,358,2.0,5.0,56,0.00,,---,0.00,VWS V14.01,2013-07-21 17:30:00,
2013-07-21 13:31:00,84.4,67.5,29.92,NW,326,0.0,2.0,57,0.00,,---,0.00,VWS V14.01,2013-07-21 17:31:00,
2013-07-21 13:36:00,83.9,67.1,29.92,WSW,256,1.0,5.0,57,0.00,,---,0.00,VWS V14.01,2013-07-21 17:36:00,
2013-07-21 13:41:00,83.6,66.8,29.92,SW,224,1.0,5.0,57,0.00,,---,0.00,VWS V14.01,2013-07-21 17:41:00,
2013-07-21 13:46:00,84.5,68.6,29.92,SE,143,2.0,5.0,59,0.00,,---,0.00,VWS V14.01,2013-07-21 17:46:00,
2013-07-21 13:51:00,84.5,67.1,29.92,SSE,150,3.0,5.0,56,0.00,,---,0.00,VWS V14.01,2013-07-21 17:51:00,
2013-07-21 13:56:00,84.7,67.3,29.92,SSW,197,2.0,5.0,56,0.00,,---,0.00,VWS V14.01,2013-07-21 17:56:00,
2013-07-21 14:00:00,85.1,66.6,29.92,East,100,0.0,5.0,54,0.00,,---,0.00,VWS V14.01,2013-07-21 18:00:00,
2013-07-21 14:01:00,85.2,68.8,29.92,East,101,0.0,0.0,58,0.00,,---,0.00,VWS V14.01,2013-07-21 18:01:00,
2013-07-21 14:06:00,85.4,66.9,29.92,NNW,335,2.0,2.0,54,0.00,,---,0.00,VWS V14.01,2013-07-21 18:06:00,
2013-07-21 14:11:00,85.7,69.7,29.92,ESE,122,2.0,2.0,59,0.00,,---,0.00,VWS V14.01,2013-07-21 18:11:00,
2013-07-21 14:16:00,85.7,66.6,29.92,NNW,339,2.0,3.0,53,0.00,,---,0.00,VWS V14.01,2013-07-21 18:16:00,
2013-07-21 14:21:00,85.0,67.0,29.92,NW,322,2.0,4.0,55,0.00,,---,0.00,VWS V14.01,2013-07-21 18:21:00,
2013-07-21 14:26:00,85.2,67.8,29.92,SW,228,1.0,6.0,56,0.00,,---,0.00,VWS V14.01,2013-07-21 18:26:00,
2013-07-21 14:30:00,85.6,67.1,29.92,South,191,1.0,6.0,54,0.00,,---,0.00,VWS V14.01,2013-07-21 18:30:00,
2013-07-21 14:31:00,85.6,66.0,29.92,ENE,61,5.0,5.0,52,0.00,,---,0.00,VWS V14.01,2013-07-21 18:31:00,
2013-07-21 14:36:00,85.0,65.4,29.92,SE,132,0.0,6.0,52,0.00,,---,0.00,VWS V14.01,2013-07-21 18:36:00,
2013-07-21 14:41:00,85.5,68.0,29.92,SE,134,1.0,6.0,56,0.00,,---,0.00,VWS V14.01,2013-07-21 18:41:00,
2013-07-21 14:46:00,85.5,68.0,29.92,NNW,339,1.0,6.0,56,0.00,,---,0.00,VWS V14.01,2013-07-21 18:46:00,
2013-07-21 14:51:00,85.2,68.8,29.92,NNW,335,2.0,6.0,58,0.00,,---,0.00,VWS V14.01,2013-07-21 18:51:00,
2013-07-21 14:56:00,85.0,68.1,29.92,SE,145,1.0,6.0,57,0.00,,---,0.00,VWS V14.01,2013-07-21 18:56:00,
2013-07-21 15:00:00,85.6,69.1,29.91,SE,139,1.0,6.0,58,0.00,,---,0.00,VWS V14.01,2013-07-21 19:00:00,
2013-07-21 15:01:00,85.8,69.3,29.91,ESE,112,1.0,4.0,58,0.00,,---,0.00,VWS V14.01,2013-07-21 19:01:00,
2013-07-21 15:06:00,86.4,67.8,29.91,NE,44,2.0,4.0,54,0.00,,---,0.00,VWS V14.01,2013-07-21 19:06:00,
2013-07-21 15:11:00,85.8,70.3,29.91,ENE,65,1.0,4.0,60,0.00,,---,0.00,VWS V14.01,2013-07-21 19:11:00,
2013-07-21 15:16:00,85.3,67.3,29.91,ESE,112,1.0,4.0,55,0.00,,---,0.00,VWS V14.01,2013-07-21 19:16:00,
2013-07-21 15:21:00,85.6,68.6,29.91,North,4,0.0,4.0,57,0.00,,---,0.00,VWS V14.01,2013-07-21 19:21:00,
2013-07-21 15:26:00,85.4,69.9,29.91,South,181,1.0,4.0,60,0.00,,---,0.00,VWS V14.01,2013-07-21 19:26:00,
2013-07-21 15:30:00,85.9,67.9,29.91,SE,146,3.0,4.0,55,0.00,,---,0.00,VWS V14.01,2013-07-21 19:30:00,
2013-07-21 15:31:00,86.0,68.0,29.91,SSW,205,2.0,4.0,55,0.00,,---,0.00,VWS V14.01,2013-07-21 19:31:00,
2013-07-21 15:36:00,86.4,67.8,29.90,SE,136,1.0,5.0,54,0.00,,---,0.00,VWS V14.01,2013-07-21 19:36:00,
2013-07-21 15:41:00,86.3,68.2,29.90,ESE,102,0.0,5.0,55,0.00,,---,0.00,VWS V14.01,2013-07-21 19:41:00,
2013-07-21 15:46:00,86.5,69.0,29.90,WNW,283,1.0,5.0,56,0.00,,---,0.00,VWS V14.01,2013-07-21 19:46:00,
2013-07-21 15:51:00,86.3,67.7,29.90,NE,45,0.0,5.0,54,0.00,,---,0.00,VWS V14.01,2013-07-21 19:51:00,
2013-07-21 15:56:00,86.0,66.9,29.90,NNE,33,2.0,5.0,53,0.00,,---,0.00,VWS V14.01,2013-07-21 19:56:00,
2013-07-21 16:00:00,86.0,69.0,29.89,NW,307,1.0,5.0,57,0.00,,---,0.00,VWS V14.01,2013-07-21 20:00:00,
2013-07-21 16:02:00,85.9,68.4,29.90,NNW,345,1.0,3.0,56,0.00,,---,0.00,VWS V14.01,2013-07-21 20:02:00,
2013-07-21 16:07:00,85.9,69.4,29.89,NE,34,1.0,4.0,58,0.00,,---,0.00,VWS V14.01,2013-07-21 20:07:00,
2013-07-21 16:12:00,85.6,70.6,29.89,ENE,57,2.0,4.0,61,0.00,,---,0.00,VWS V14.01,2013-07-21 20:12:00,
2013-07-21 16:17:00,84.4,69.5,29.89,NNE,18,0.0,4.0,61,0.00,,---,0.00,VWS V14.01,2013-07-21 20:17:00,
2013-07-21 16:22:00,83.9,70.0,29.89,NE,39,0.0,4.0,63,0.00,,---,0.00,VWS V14.01,2013-07-21 20:22:00,
2013-07-21 16:27:00,83.1,69.7,29.89,North,1,1.0,4.0,64,0.00,,---,0.00,VWS V14.01,2013-07-21 20:27:00,
2013-07-21 16:30:00,82.4,69.0,29.88,NE,41,0.0,4.0,64,0.00,,---,0.00,VWS V14.01,2013-07-21 20:30:00,
2013-07-21 16:32:00,82.3,69.8,29.88,NE,41,0.0,0.0,66,0.00,,---,0.00,VWS V14.01,2013-07-21 20:32:00,
2013-07-21 16:37:00,81.9,69.9,29.88,NNW,346,0.0,1.0,67,0.00,,---,0.00,VWS V14.01,2013-07-21 20:37:00,
2013-07-21 16:42:00,81.6,69.2,29.88,NE,46,0.0,1.0,66,0.00,,---,0.00,VWS V14.01,2013-07-21 20:42:00,
2013-07-21 16:47:00,81.7,71.0,29.88,NE,44,0.0,1.0,70,0.00,,---,0.00,VWS V14.01,2013-07-21 20:47:00,
2013-07-21 16:52:00,81.8,72.3,29.88,NE,44,0.0,1.0,73,0.00,,---,0.00,VWS V14.01,2013-07-21 20:52:00,
2013-07-21 16:57:00,82.1,70.1,29.88,WSW,243,0.0,1.0,67,0.00,,---,0.00,VWS V14.01,2013-07-21 20:57:00,
2013-07-21 17:00:00,82.6,68.7,29.88,South,169,2.0,4.0,63,0.00,,---,0.00,VWS V14.01,2013-07-21 21:00:00,
2013-07-21 17:02:00,82.8,69.8,29.87,ESE,121,0.0,2.0,65,0.00,,---,0.00,VWS V14.01,2013-07-21 21:02:00,
2013-07-21 17:07:00,83.0,70.5,29.87,ESE,122,0.0,2.0,66,0.00,,---,0.00,VWS V14.01,2013-07-21 21:07:00,
2013-07-21 17:12:00,83.1,71.4,29.87,ESE,121,0.0,2.0,68,0.00,,---,0.00,VWS V14.01,2013-07-21 21:12:00,
2013-07-21 17:17:00,84.0,68.6,29.87,South,172,0.0,3.0,60,0.00,,---,0.00,VWS V14.01,2013-07-21 21:17:00,
2013-07-21 17:22:00,85.2,69.8,29.87,SW,218,3.0,5.0,60,0.00,,---,0.00,VWS V14.01,2013-07-21 21:22:00,
2013-07-21 17:27:00,85.0,67.0,29.86,SE,134,3.0,5.0,55,0.00,,---,0.00,VWS V14.01,2013-07-21 21:27:00,
2013-07-21 17:30:00,85.0,67.6,29.86,SSW,194,1.0,5.0,56,0.00,,---,0.00,VWS V14.01,2013-07-21 21:30:00,
2013-07-21 17:32:00,85.0,67.6,29.86,SW,218,1.0,4.0,56,0.00,,---,0.00,VWS V14.01,2013-07-21 21:32:00,
2013-07-21 17:37:00,84.9,68.0,29.86,SSW,198,1.0,5.0,57,0.00,,---,0.00,VWS V14.01,2013-07-21 21:37:00,
2013-07-21 17:42:00,85.2,68.3,29.86,SW,214,1.0,5.0,57,0.00,,---,0.00,VWS V14.01,2013-07-21 21:42:00,
2013-07-21 17:47:00,85.7,68.2,29.86,NE,46,1.0,5.0,56,0.00,,---,0.00,VWS V14.01,2013-07-21 21:47:00,
2013-07-21 17:52:00,85.1,68.2,29.86,NNW,347,0.0,5.0,57,0.00,,---,0.00,VWS V14.01,2013-07-21 21:52:00,
2013-07-21 17:57:00,85.0,68.6,29.86,NNW,343,1.0,5.0,58,0.00,,---,0.00,VWS V14.01,2013-07-21 21:57:00,
2013-07-21 18:00:00,85.4,69.9,29.86,SW,221,3.0,5.0,60,0.00,,---,0.00,VWS V14.01,2013-07-21 22:00:00,
2013-07-21 18:02:00,85.4,68.4,29.86,SW,224,1.0,5.0,57,0.00,,---,0.00,VWS V14.01,2013-07-21 22:02:00,
2013-07-21 18:07:00,85.8,69.8,29.85,SE,127,0.0,5.0,59,0.00,,---,0.00,VWS V14.01,2013-07-21 22:07:00,
2013-07-21 18:12:00,85.9,70.4,29.86,East,89,0.0,5.0,60,0.00,,---,0.00,VWS V14.01,2013-07-21 22:12:00,
2013-07-21 18:17:00,85.8,70.8,29.85,NNW,340,1.0,5.0,61,0.00,,---,0.00,VWS V14.01,2013-07-21 22:17:00,
2013-07-21 18:22:00,84.8,69.9,29.85,NNE,25,0.0,5.0,61,0.00,,---,0.00,VWS V14.01,2013-07-21 22:22:00,
2013-07-21 18:27:00,83.9,70.0,29.85,North,8,0.0,5.0,63,0.00,,---,0.00,VWS V14.01,2013-07-21 22:27:00,
2013-07-21 18:30:00,83.8,70.3,29.85,NNE,13,0.0,5.0,64,0.00,,---,0.00,VWS V14.01,2013-07-21 22:30:00,
2013-07-21 18:32:00,83.7,71.6,29.85,NNE,13,0.0,0.0,67,0.00,,---,0.00,VWS V14.01,2013-07-21 22:32:00,
2013-07-21 18:37:00,83.5,69.6,29.85,NNE,13,0.0,0.0,63,0.00,,---,0.00,VWS V14.01,2013-07-21 22:37:00,
2013-07-21 18:42:00,82.8,70.3,29.85,NNE,13,0.0,0.0,66,0.00,,---,0.00,VWS V14.01,2013-07-21 22:42:00,
2013-07-21 18:47:00,82.2,71.0,29.84,ENE,72,0.0,1.0,69,0.00,,---,0.00,VWS V14.01,2013-07-21 22:47:00,
2013-07-21 18:52:00,82.1,72.2,29.85,ENE,72,0.0,1.0,72,0.00,,---,0.00,VWS V14.01,2013-07-21 22:52:00,
2013-07-21 18:57:00,82.5,71.3,29.85,ENE,72,0.0,1.0,69,0.00,,---,0.00,VWS V14.01,2013-07-21 22:57:00,
2013-07-21 19:00:00,82.7,71.9,29.85,North,4,0.0,1.0,70,0.00,,---,0.00,VWS V14.01,2013-07-21 23:00:00,
2013-07-21 19:02:00,82.8,72.4,29.85,North,4,0.0,0.0,71,0.00,,---,0.00,VWS V14.01,2013-07-21 23:02:00,
2013-07-21 19:07:00,82.6,70.1,29.85,NNE,30,0.0,1.0,66,0.00,,---,0.00,VWS V14.01,2013-07-21 23:07:00,
2013-07-21 19:12:00,83.1,72.3,29.85,NE,43,0.0,1.0,70,0.00,,---,0.00,VWS V14.01,2013-07-21 23:12:00,
2013-07-21 19:17:00,84.3,70.3,29.84,South,186,0.0,2.0,63,0.00,,---,0.00,VWS V14.01,2013-07-21 23:17:00,
2013-07-21 19:22:00,84.8,71.3,29.84,SSW,197,0.0,2.0,64,0.00,,---,0.00,VWS V14.01,2013-07-21 23:22:00,
2013-07-21 19:27:00,85.2,69.3,29.84,ESE,120,1.0,2.0,59,0.00,,---,0.00,VWS V14.01,2013-07-21 23:27:00,
2013-07-21 19:30:00,85.2,69.8,29.84,SE,132,0.0,3.0,60,0.00,,---,0.00,VWS V14.01,2013-07-21 23:30:00,
2013-07-21 19:32:00,85.2,71.2,29.85,WSW,238,0.0,1.0,63,0.00,,---,0.00,VWS V14.01,2013-07-21 23:32:00,
2013-07-21 19:37:00,84.3,69.4,29.85,WNW,291,0.0,1.0,61,0.00,,---,0.00,VWS V14.01,2013-07-21 23:37:00,
2013-07-21 19:42:00,83.3,69.4,29.85,SE,129,0.0,1.0,63,0.00,,---,0.00,VWS V14.01,2013-07-21 23:42:00,
2013-07-21 19:47:00,82.1,70.1,29.85,SE,128,0.0,1.0,67,0.00,,---,0.00,VWS V14.01,2013-07-21 23:47:00,
2013-07-21 19:52:00,80.9,69.4,29.85,SE,128,0.0,1.0,68,0.00,,---,0.00,VWS V14.01,2013-07-21 23:52:00,
2013-07-21 19:57:00,80.3,69.6,29.85,SE,132,0.0,1.0,70,0.00,,---,0.00,VWS V14.01,2013-07-21 23:57:00,
2013-07-21 20:00:00,79.8,69.2,29.85,SE,133,0.0,1.0,70,0.00,,---,0.00,VWS V14.01,2013-07-22 00:00:00,
2013-07-21 20:02:00,79.7,70.3,29.85,SE,132,0.0,0.0,73,0.00,,---,0.00,VWS V14.01,2013-07-22 00:02:00,
2013-07-21 20:07:00,79.5,71.3,29.85,SE,132,0.0,0.0,76,0.00,,---,0.00,VWS V14.01,2013-07-22 00:07:00,
2013-07-21 20:12:00,79.3,70.3,29.85,SE,132,0.0,0.0,74,0.00,,---,0.00,VWS V14.01,2013-07-22 00:12:00,
2013-07-21 20:17:00,79.3,70.7,29.85,SE,133,0.0,0.0,75,0.00,,---,0.00,VWS V14.01,2013-07-22 00:17:00,
2013-07-21 20:22:00,79.2,70.2,29.85,SE,132,0.0,0.0,74,0.00,,---,0.00,VWS V14.01,2013-07-22 00:22:00,
2013-07-21 20:27:00,79.0,69.6,29.86,SE,133,0.0,0.0,73,0.00,,---,0.00,VWS V14.01,2013-07-22 00:27:00,
2013-07-21 20:30:00,78.6,68.8,29.86,SE,133,0.0,0.0,72,0.00,,---,0.00,VWS V14.01,2013-07-22 00:30:00,
2013-07-21 20:32:00,78.3,68.5,29.86,SE,132,0.0,0.0,72,0.00,,---,0.00,VWS V14.01,2013-07-22 00:32:00,
2013-07-21 20:37:00,78.0,69.8,29.86,SE,133,0.0,0.0,76,0.00,,---,0.00,VWS V14.01,2013-07-22 00:37:00,
2013-07-21 20:42:00,77.7,69.2,29.86,SE,132,0.0,0.0,75,0.00,,---,0.00,VWS V14.01,2013-07-22 00:42:00,
2013-07-21 20:47:00,77.4,70.0,29.86,SE,132,0.0,0.0,78,0.00,,---,0.00,VWS V14.01,2013-07-22 00:47:00,
2013-07-21 20:52:00,76.9,69.5,29.86,SE,132,0.0,0.0,78,0.00,,---,0.00,VWS V14.01,2013-07-22 00:52:00,
2013-07-21 20:57:00,76.4,69.0,29.86,SE,132,0.0,0.0,78,0.00,,---,0.00,VWS V14.01,2013-07-22 00:57:00,
2013-07-21 21:00:00,76.2,69.2,29.86,SE,133,0.0,0.0,79,0.00,,---,0.00,VWS V14.01,2013-07-22 01:00:00,
2013-07-21 21:02:00,75.9,68.9,29.86,SE,132,0.0,0.0,79,0.00,,---,0.00,VWS V14.01,2013-07-22 01:02:00,
2013-07-21 21:08:00,75.4,68.4,29.86,SE,132,0.0,0.0,79,0.00,,---,0.00,VWS V14.01,2013-07-22 01:08:00,
2013-07-21 21:13:00,75.3,69.1,29.86,SE,133,0.0,0.0,81,0.00,,---,0.00,VWS V14.01,2013-07-22 01:13:00,
2013-07-21 21:18:00,75.1,68.5,29.86,SE,132,0.0,0.0,80,0.00,,---,0.00,VWS V14.01,2013-07-22 01:18:00,
2013-07-21 21:23:00,74.9,69.0,29.86,SE,132,0.0,0.0,82,0.00,,---,0.00,VWS V14.01,2013-07-22 01:23:00,
2013-07-21 21:28:00,74.7,69.2,29.86,SE,133,0.0,0.0,83,0.00,,---,0.00,VWS V14.01,2013-07-22 01:28:00,
2013-07-21 21:30:00,74.5,69.0,29.86,SE,132,0.0,0.0,83,0.00,,---,0.00,VWS V14.01,2013-07-22 01:30:00,
2013-07-21 21:33:00,74.4,69.3,29.86,SE,132,0.0,0.0,84,0.00,,---,0.00,VWS V14.01,2013-07-22 01:33:00,
2013-07-21 21:38:00,74.1,69.3,29.87,SE,132,0.0,0.0,85,0.00,,---,0.00,VWS V14.01,2013-07-22 01:38:00,
2013-07-21 21:43:00,73.9,69.4,29.87,SE,133,0.0,0.0,86,0.00,,---,0.00,VWS V14.01,2013-07-22 01:43:00,
2013-07-21 21:48:00,73.8,69.3,29.87,SE,132,0.0,0.0,86,0.00,,---,0.00,VWS V14.01,2013-07-22 01:48:00,
2013-07-21 21:53:00,73.7,69.3,29.87,SE,132,0.0,0.0,86,0.00,,---,0.00,VWS V14.01,2013-07-22 01:53:00,
2013-07-21 21:58:00,73.9,69.8,29.87,SE,133,0.0,0.0,87,0.00,,---,0.00,VWS V14.01,2013-07-22 01:58:00,
2013-07-21 22:00:00,73.9,70.1,29.87,SE,132,0.0,0.0,88,0.00,,---,0.00,VWS V14.01,2013-07-22 02:00:00,
2013-07-21 22:03:00,73.9,70.1,29.88,SE,132,0.0,0.0,88,0.00,,---,0.00,VWS V14.01,2013-07-22 02:03:00,
2013-07-21 22:08:00,73.7,69.9,29.88,SE,132,0.0,0.0,88,0.00,,---,0.00,VWS V14.01,2013-07-22 02:08:00,
2013-07-21 22:13:00,73.5,69.4,29.88,SE,132,0.0,0.0,87,0.00,,---,0.00,VWS V14.01,2013-07-22 02:13:00,
2013-07-21 22:18:00,73.5,69.4,29.88,SE,132,0.0,0.0,87,0.00,,---,0.00,VWS V14.01,2013-07-22 02:18:00,
2013-07-21 22:23:00,73.8,69.3,29.88,SE,134,0.0,0.0,86,0.00,,---,0.00,VWS V14.01,2013-07-22 02:23:00,
2013-07-21 22:28:00,73.8,69.3,29.88,SE,134,0.0,0.0,86,0.00,,---,0.00,VWS V14.01,2013-07-22 02:28:00,
2013-07-21 22:30:00,73.9,69.4,29.88,SE,134,0.0,0.0,86,0.00,,---,0.00,VWS V14.01,2013-07-22 02:30:00,
2013-07-21 22:33:00,73.9,69.4,29.88,SE,134,0.0,0.0,86,0.00,,---,0.00,VWS V14.01,2013-07-22 02:33:00,
2013-07-21 22:38:00,74.0,69.6,29.88,WSW,240,0.0,0.0,86,0.00,,---,0.00,VWS V14.01,2013-07-22 02:38:00,
2013-07-21 22:43:00,74.1,69.3,29.88,WSW,240,0.0,0.0,85,0.00,,---,0.00,VWS V14.01,2013-07-22 02:43:00,
2013-07-21 22:48:00,74.2,69.4,29.88,WSW,240,0.0,0.0,85,0.00,,---,0.00,VWS V14.01,2013-07-22 02:48:00,
2013-07-21 22:53:00,74.2,69.4,29.88,WSW,240,0.0,0.0,85,0.00,,---,0.00,VWS V14.01,2013-07-22 02:53:00,
2013-07-21 22:58:00,74.4,69.6,29.88,SW,225,0.0,0.0,85,0.00,,---,0.00,VWS V14.01,2013-07-22 02:58:00,
2013-07-21 23:00:00,74.4,69.6,29.88,SW,225,0.0,0.0,85,0.00,,---,0.00,VWS V14.01,2013-07-22 03:00:00,
2013-07-21 23:03:00,74.4,69.6,29.88,SW,225,0.0,0.0,85,0.00,,---,0.00,VWS V14.01,2013-07-22 03:03:00,
2013-07-21 23:08:00,74.4,69.3,29.88,West,278,0.0,0.0,84,0.00,,---,0.00,VWS V14.01,2013-07-22 03:08:00,
2013-07-21 23:13:00,74.6,69.4,29.88,NE,42,0.0,2.0,84,0.00,,---,0.00,VWS V14.01,2013-07-22 03:13:00,
2013-07-21 23:18:00,74.8,69.3,29.88,SSW,197,0.0,2.0,83,0.00,,---,0.00,VWS V14.01,2013-07-22 03:18:00,
2013-07-21 23:23:00,74.8,69.3,29.88,NNW,327,0.0,2.0,83,0.00,,---,0.00,VWS V14.01,2013-07-22 03:23:00,
2013-07-21 23:28:00,74.8,69.3,29.88,SE,141,0.0,2.0,83,0.00,,---,0.00,VWS V14.01,2013-07-22 03:28:00,
2013-07-21 23:30:00,74.8,69.3,29.88,WSW,239,0.0,2.0,83,0.00,,---,0.00,VWS V14.01,2013-07-22 03:30:00,
2013-07-21 23:33:00,74.8,69.3,29.88,West,266,0.0,1.0,83,0.00,,---,0.00,VWS V14.01,2013-07-22 03:33:00,
2013-07-21 23:38:00,74.7,69.2,29.88,NW,323,1.0,1.0,83,0.00,,---,0.00,VWS V14.01,2013-07-22 03:38:00,
2013-07-21 23:43:00,74.7,69.2,29.88,SSE,160,3.0,4.0,83,0.00,,---,0.00,VWS V14.01,2013-07-22 03:43:00,
2013-07-21 23:48:00,74.7,69.2,29.88,SSW,201,1.0,4.0,83,0.00,,---,0.00,VWS V14.01,2013-07-22 03:48:00,
2013-07-21 23:53:00,74.7,69.2,29.88,SE,134,0.0,4.0,83,0.00,,---,0.00,VWS V14.01,2013-07-22 03:53:00,
2013-07-21 23:59:00,74.6,69.1,29.88,ESE,113,0.0,4.0,83,0.00,,---,0.00,VWS V14.01,2013-07-22 03:59:00,